Time;durP1;ratioP1;P1;durP2;ratioP2;P2;SDS_P1;SDS_P2;PMS_P1;PMS_P2;Temp;Humidity;BMP_temperature;BMP_pressure;BME280_temperature;BME280_humidity;BME280_pressure;Samples;Min_cycle;Max_cycle;Signal;HPM_P1;HPM_P2
2023/10/11 00:00:52;;;;;;;5.80;5.70;;;;;;;-141.02;100.00;38204.84;5136152;27;20236;-65
2023/10/11 00:03:32;;;;;;;5.57;5.47;;;;;;;-141.02;100.00;38210.59;5136079;27;20200;-67
2023/10/11 00:06:04;;;;;;;5.70;5.60;;;;;;;-141.02;100.00;38210.59;5135873;27;20252;-64
2023/10/11 00:08:39;;;;;;;6.15;6.05;;;;;;;-141.02;100.00;38239.38;5135861;27;20224;-64
2023/10/11 00:11:07;;;;;;;6.47;6.35;;;;;;;-141.02;100.00;38220.19;5135871;27;20191;-64
2023/10/11 00:13:35;;;;;;;6.13;6.03;;;;;;;-141.02;100.00;38216.34;5136054;27;20604;-65
2023/10/11 00:16:07;;;;;;;5.93;5.82;;;;;;;-141.02;100.00;38189.53;5135695;27;20193;-66
2023/10/11 00:18:35;;;;;;;5.80;5.70;;;;;;;-141.02;100.00;38155.00;5135561;27;20213;-67
2023/10/11 00:21:10;;;;;;;5.75;5.65;;;;;;;-141.02;100.00;38112.84;5135825;27;20279;-65
2023/10/11 00:23:41;;;;;;;5.50;5.40;;;;;;;-141.02;100.00;38105.16;5135820;27;20192;-66
2023/10/11 00:26:08;;;;;;;5.22;5.13;;;;;;;-141.02;100.00;38024.66;5135532;27;20562;-64
2023/10/11 00:28:37;;;;;;;5.13;5.03;;;;;;;-141.02;100.00;37993.97;5135426;27;20196;-66
2023/10/11 00:35:24;;;;;;;4.78;4.68;;;;;;;-141.02;100.00;37865.53;5135456;27;20236;-65
2023/10/11 00:41:12;;;;;;;4.60;4.50;;;;;;;-141.02;100.00;37717.94;5092331;28;20202;-66
2023/10/11 00:43:42;;;;;;;4.50;4.40;;;;;;;-141.02;100.00;37694.94;5092213;28;20185;-66
2023/10/11 00:46:14;;;;;;;4.40;4.30;;;;;;;-141.02;100.00;37687.28;5092228;28;20240;-66
2023/10/11 00:48:51;;;;;;;4.40;4.30;;;;;;;-141.02;100.00;37656.59;5092162;28;20209;-66
2023/10/11 00:51:20;;;;;;;4.20;4.10;;;;;;;-141.02;100.00;37604.84;5091525;28;20278;-66
2023/10/11 00:53:49;;;;;;;4.35;4.25;;;;;;;-141.02;100.00;37616.34;5091943;28;20190;-66
2023/10/11 00:56:18;;;;;;;4.20;4.10;;;;;;;-141.02;100.00;37572.28;5091838;28;20216;-62
2023/10/11 00:58:45;;;;;;;3.97;3.88;;;;;;;-141.02;100.00;37549.28;5091917;28;20695;-59
2023/10/11 01:01:14;;;;;;;3.88;3.78;;;;;;;-141.02;100.00;37555.03;5091797;28;20233;-66
2023/10/11 01:03:41;;;;;;;3.90;3.80;;;;;;;-141.02;100.00;37526.28;5093553;28;20247;-66
2023/10/11 01:06:10;;;;;;;3.83;3.72;;;;;;;-141.02;100.00;37503.28;5094111;28;20229;-64
2023/10/11 01:08:39;;;;;;;3.50;3.40;;;;;;;-141.02;100.00;37507.09;5093950;28;20205;-66
2023/10/11 01:11:14;;;;;;;3.45;3.35;;;;;;;-141.02;100.00;37478.34;5094122;28;20263;-66
2023/10/11 01:13:42;;;;;;;3.67;3.57;;;;;;;-141.02;100.00;37491.78;5093891;28;20224;-64
2023/10/11 01:16:10;;;;;;;3.60;3.50;;;;;;;-141.02;100.00;37441.94;5093918;28;20198;-66
2023/10/11 01:18:38;;;;;;;3.90;3.80;;;;;;;-141.02;100.00;37432.34;5093402;28;20204;-66
2023/10/11 01:21:07;;;;;;;3.53;3.42;;;;;;;-141.02;100.00;37441.94;5093476;28;20197;-66
2023/10/11 01:23:35;;;;;;;3.90;3.80;;;;;;;-141.02;100.00;37438.09;5093678;28;20201;-66
2023/10/11 01:26:08;;;;;;;3.93;3.83;;;;;;;-141.02;100.00;37476.44;5093362;28;20198;-67
2023/10/11 01:28:36;;;;;;;3.70;3.60;;;;;;;-141.02;100.00;37453.44;5093391;28;20182;-66
2023/10/11 01:31:08;;;;;;;3.75;3.65;;;;;;;-141.02;100.00;37464.94;5093209;28;20639;-67
2023/10/11 01:33:37;;;;;;;3.95;3.85;;;;;;;-141.02;100.00;37510.94;5093837;28;20229;-66
2023/10/11 01:36:07;;;;;;;3.55;3.45;;;;;;;-141.02;100.00;37464.94;5093464;28;20579;-63
2023/10/11 01:38:45;;;;;;;3.30;3.30;;;;;;;-141.02;100.00;37482.19;5099258;27;20246;-66
2023/10/11 01:41:14;;;;;;;3.60;3.50;;;;;;;-141.02;100.00;37526.28;5133997;27;20200;-65
2023/10/11 01:43:42;;;;;;;3.55;3.45;;;;;;;-141.02;100.00;37495.59;5133927;27;20198;-66
2023/10/11 01:46:09;;;;;;;3.47;3.38;;;;;;;-141.02;100.00;37541.59;5133816;27;20279;-66
2023/10/11 01:48:36;;;;;;;3.80;3.70;;;;;;;-141.02;100.00;37543.53;5133832;27;20629;-66
2023/10/11 01:51:05;;;;;;;4.30;4.20;;;;;;;-141.02;100.00;37495.59;5134090;27;20257;-67
2023/10/11 01:53:35;;;;;;;4.00;3.90;;;;;;;-141.02;100.00;37522.44;5133634;27;20249;-66
2023/10/11 01:56:03;;;;;;;4.35;4.25;;;;;;;-141.02;100.00;37505.19;5134069;27;20189;-66
2023/10/11 01:58:37;;;;;;;4.30;4.20;;;;;;;-141.02;100.00;37510.94;5133915;27;20273;-66
2023/10/11 02:01:05;;;;;;;3.90;3.80;;;;;;;-141.02;100.00;37510.94;5132975;27;20697;-66
2023/10/11 02:03:39;;;;;;;4.20;4.10;;;;;;;-141.02;100.00;37487.94;5133717;27;20279;-64
2023/10/11 02:06:07;;;;;;;4.33;4.23;;;;;;;-141.02;100.00;37514.78;5133621;27;20205;-64
2023/10/11 02:08:36;;;;;;;4.50;4.40;;;;;;;-141.02;100.00;37526.28;5133743;27;20605;-64
2023/10/11 02:11:05;;;;;;;4.80;4.70;;;;;;;-141.02;100.00;37518.59;5133511;27;20196;-66
2023/10/11 02:13:33;;;;;;;4.50;4.40;;;;;;;-141.02;100.00;37551.19;5133661;27;20559;-65
2023/10/11 02:16:01;;;;;;;4.95;4.85;;;;;;;-141.02;100.00;37518.59;5133377;27;20283;-66
2023/10/11 02:18:34;;;;;;;5.40;5.30;;;;;;;-141.02;100.00;37514.78;5133358;27;20231;-66
2023/10/11 02:21:06;;;;;;;5.20;5.10;;;;;;;-141.02;100.00;37487.94;5133505;27;20238;-65
2023/10/11 02:23:39;;;;;;;4.80;4.70;;;;;;;-141.02;100.00;37487.94;5133654;27;20189;-65
2023/10/11 02:26:09;;;;;;;5.38;5.28;;;;;;;-141.02;100.00;37480.28;5133282;27;20236;-65
2023/10/11 02:28:39;;;;;;;5.88;5.78;;;;;;;-141.02;100.00;37543.53;5133292;27;20384;-66
2023/10/11 02:31:06;;;;;;;8.60;8.40;;;;;;;-141.02;100.00;37493.69;5133469;27;20196;-64
2023/10/11 02:33:34;;;;;;;11.77;11.48;;;;;;;-141.02;100.00;37522.44;5133651;27;20218;-65
2023/10/11 02:36:09;;;;;;;11.90;11.60;;;;;;;-141.02;100.00;37595.28;5133338;27;20279;-65
2023/10/11 02:38:47;;;;;;;10.75;10.45;;;;;;;-141.02;100.00;37599.09;5130683;27;20227;-62
2023/10/11 02:41:20;;;;;;;10.52;10.23;;;;;;;-141.02;100.00;37625.94;5133337;27;20223;-66
2023/10/11 02:43:49;;;;;;;10.25;9.95;;;;;;;-141.02;100.00;37616.34;5133341;27;20211;-64
2023/10/11 02:46:16;;;;;;;10.45;10.15;;;;;;;-141.02;100.00;37671.94;5133216;28;20200;-66
2023/10/11 02:48:46;;;;;;;10.05;9.75;;;;;;;-141.02;100.00;37635.53;5132964;27;20646;-65
2023/10/11 02:51:16;;;;;;;10.23;9.93;;;;;;;-141.02;100.00;37702.59;5133239;27;20188;-66
2023/10/11 02:53:45;;;;;;;9.63;9.43;;;;;;;-141.02;100.00;37760.13;5133286;28;20184;-66
2023/10/11 02:56:15;;;;;;;9.38;9.18;;;;;;;-141.02;100.00;37771.63;5132867;28;20195;-66
2023/10/11 02:58:42;;;;;;;9.30;9.10;;;;;;;-141.02;100.00;37771.63;5133157;28;20654;-66
2023/10/11 03:01:14;;;;;;;8.65;8.45;;;;;;;-141.02;100.00;37767.78;5133078;28;20311;-66
2023/10/11 03:03:42;;;;;;;8.65;8.45;;;;;;;-141.02;100.00;37737.13;5132761;28;20192;-66
2023/10/11 03:06:09;;;;;;;8.00;7.80;;;;;;;-141.02;100.00;37806.13;5133046;28;20284;-67
2023/10/11 03:08:37;;;;;;;7.60;7.40;;;;;;;-141.02;100.00;37798.44;5132786;28;20636;-65
2023/10/11 03:11:08;;;;;;;8.88;8.68;;;;;;;-141.02;100.00;37852.13;5133071;27;20196;-64
2023/10/11 03:13:41;;;;;;;9.60;9.40;;;;;;;-141.02;100.00;37932.63;5135319;27;20184;-67
2023/10/11 03:16:13;;;;;;;11.80;11.50;;;;;;;-141.02;100.00;37873.22;5136893;27;20692;-66
2023/10/11 03:18:42;;;;;;;5.80;5.70;;;;;;;-141.02;100.00;37924.97;5136967;27;20192;-64
2023/10/11 03:21:20;;;;;;;6.80;6.60;;;;;;;-141.02;100.00;37905.81;5136587;27;20223;-66
2023/10/11 03:23:48;;;;;;;7.30;7.10;;;;;;;-141.02;100.00;37959.47;5137051;27;20192;-66
2023/10/11 03:26:22;;;;;;;15.30;14.90;;;;;;;-141.02;100.00;37959.47;5136981;27;20200;-66
2023/10/11 03:28:57;;;;;;;16.60;16.10;;;;;;;-141.02;100.00;38038.06;5136800;27;20647;-63
2023/10/11 03:31:24;;;;;;;13.90;13.50;;;;;;;-141.02;100.00;37993.97;5136569;27;20184;-66
2023/10/11 03:33:51;;;;;;;15.18;14.73;;;;;;;-141.02;100.00;38005.47;5136444;27;20709;-66
2023/10/11 03:36:20;;;;;;;18.40;17.80;;;;;;;-141.02;100.00;38009.31;5136366;27;20192;-66
2023/10/11 03:38:51;;;;;;;17.67;17.08;;;;;;;-141.02;100.00;38185.69;5135556;27;20199;-67
2023/10/11 03:41:28;;;;;;;10.48;10.18;;;;;;;-141.02;100.00;38026.56;5136270;27;20212;-66
2023/10/11 03:44:00;;;;;;;10.60;10.30;;;;;;;-141.02;100.00;38051.50;5136350;27;20645;-66
2023/10/11 03:46:33;;;;;;;10.50;10.20;;;;;;;-141.02;100.00;38089.84;5136210;27;20245;-66
2023/10/11 03:49:32;;;;;;;18.35;17.75;;;;;;;-141.02;100.00;38070.66;5136179;27;20655;-68
2023/10/11 03:51:51;;;;;;;19.60;18.90;;;;;;;-141.02;100.00;38086.00;5136547;27;20189;-66
2023/10/11 03:54:22;;;;;;;20.60;19.90;;;;;;;-141.02;100.00;38074.50;5136349;27;20200;-66
2023/10/11 03:56:53;;;;;;;20.42;19.73;;;;;;;-141.02;100.00;38126.25;5136226;27;20189;-65
2023/10/11 03:59:21;;;;;;;22.98;22.08;;;;;;;-141.02;100.00;38139.69;5136310;27;20249;-67
2023/10/11 04:01:51;;;;;;;18.02;17.38;;;;;;;-141.02;100.00;38132.00;5136067;27;20204;-65
2023/10/11 04:04:20;;;;;;;12.50;12.10;;;;;;;-141.02;100.00;38158.84;5136134;27;20231;-66
2023/10/11 04:06:51;;;;;;;12.20;11.80;;;;;;;-141.02;100.00;38216.34;5135858;27;20741;-66
2023/10/11 04:09:37;;;;;;;12.45;12.05;;;;;;;-141.02;100.00;38243.19;5135803;27;20228;-66
2023/10/11 04:12:10;;;;;;;24.65;23.65;;;;;;;-141.02;100.00;38197.19;5135915;27;20196;-66
2023/10/11 04:14:44;;;;;;;25.40;24.40;;;;;;;-141.02;100.00;38243.19;5135784;27;20196;-67
2023/10/11 04:17:25;;;;;;;27.25;26.15;;;;;;;-141.02;100.00;38248.94;5135713;27;20642;-65
2023/10/11 04:19:54;;;;;;;27.45;26.35;;;;;;;-141.02;100.00;38264.28;5135931;27;20303;-65
2023/10/11 04:22:25;;;;;;;12.30;11.90;;;;;;;-141.02;100.00;38312.22;5135588;27;20195;-66
2023/10/11 04:24:54;;;;;;;12.80;12.40;;;;;;;-141.02;100.00;38377.41;5134511;27;20654;-66
2023/10/11 04:30:23;;;;;;;12.57;12.18;;;;;;;-141.02;100.00;38519.28;5110068;27;20200;-66
2023/10/11 04:32:56;;;;;;;24.13;23.23;;;;;;;-141.02;100.00;38618.97;5135753;27;20249;-65
2023/10/11 04:35:25;;;;;;;26.25;25.20;;;;;;;-141.02;100.00;38661.16;5135406;27;20189;-66
2023/10/11 04:38:02;;;;;;;21.48;20.67;;;;;;;-141.02;100.00;38776.19;5135526;27;20215;-65
2023/10/11 04:40:40;;;;;;;28.65;27.45;;;;;;;-141.02;100.00;38785.78;5135066;27;20239;-66
2023/10/11 04:43:20;;;;;;;27.98;26.88;;;;;;;-141.02;100.00;38854.81;5135235;27;20197;-65
2023/10/11 04:45:50;;;;;;;12.38;11.98;;;;;;;-141.02;100.00;38975.63;5135198;27;20557;-66
2023/10/11 04:48:19;;;;;;;12.35;11.95;;;;;;;-141.02;100.00;39071.50;5135018;27;20235;-67
2023/10/11 04:50:47;;;;;;;11.57;11.20;;;;;;;-141.02;100.00;39130.94;5135364;27;20224;-64
2023/10/11 04:53:18;;;;;;;24.95;23.95;;;;;;;-141.02;100.00;39211.50;5135149;27;20198;-66
2023/10/11 04:55:48;;;;;;;26.90;25.80;;;;;;;-141.02;100.00;39255.59;5135008;27;20193;-65
2023/10/11 04:58:39;;;;;;;26.13;25.13;;;;;;;-141.02;100.00;39293.94;5135211;27;20196;-66
2023/10/11 05:01:08;;;;;;;26.48;25.48;;;;;;;-141.02;100.00;39359.16;5134741;27;20713;-66
2023/10/11 05:03:37;;;;;;;26.10;25.10;;;;;;;-141.02;100.00;39393.66;5135015;27;20192;-65
2023/10/11 05:06:13;;;;;;;12.15;11.75;;;;;;;-141.02;100.00;39403.25;5134753;27;20188;-65
2023/10/11 05:08:54;;;;;;;11.57;11.18;;;;;;;-141.02;100.00;39468.47;5134717;27;20646;-66
2023/10/11 05:11:36;;;;;;;11.90;11.50;;;;;;;-141.02;100.00;39497.22;5134619;27;20651;-66
2023/10/11 05:14:26;;;;;;;24.92;23.92;;;;;;;-141.02;100.00;39506.81;5134959;27;20185;-67
2023/10/11 05:16:58;;;;;;;24.73;23.73;;;;;;;-141.02;100.00;39535.59;5134833;27;20195;-66
2023/10/11 05:19:27;;;;;;;25.00;24.00;;;;;;;-141.02;100.00;39535.59;5134835;27;20219;-65
2023/10/11 05:21:53;;;;;;;19.88;19.17;;;;;;;-141.02;100.00;39556.69;5134579;27;20224;-65
2023/10/11 05:27:36;;;;;;;12.00;11.60;;;;;;;-141.02;100.00;39598.88;5118142;27;20195;-63
2023/10/11 05:30:06;;;;;;;11.75;11.35;;;;;;;-141.02;100.00;39581.63;5134553;27;20185;-65
2023/10/11 05:32:35;;;;;;;11.85;11.45;;;;;;;-141.02;100.00;39612.31;5134215;27;20204;-66
2023/10/11 05:35:19;;;;;;;18.27;17.67;;;;;;;-141.02;100.00;39660.25;5134096;27;20192;-66
2023/10/11 05:51:30;;;;;;;10.90;10.60;;;;;;;-141.02;100.00;39761.91;5133991;27;20200;-66
2023/10/11 05:53:59;;;;;;;11.45;11.15;;;;;;;-141.02;100.00;39723.53;5134122;27;20274;-65
2023/10/11 05:56:33;;;;;;;18.15;17.55;;;;;;;-141.02;100.00;39834.78;5133708;27;21027;-64
2023/10/11 05:59:03;;;;;;;18.80;18.10;;;;;;;-141.02;100.00;39888.50;5133716;27;20195;-65
2023/10/11 06:01:34;;;;;;;21.00;20.20;;;;;;;-141.02;100.00;39894.25;5133813;27;20227;-64
2023/10/11 06:04:03;;;;;;;22.02;21.15;;;;;;;-141.02;100.00;39926.84;5133622;27;20197;-63
2023/10/11 06:06:38;;;;;;;19.98;19.27;;;;;;;-141.02;100.00;39919.19;5133538;27;20193;-66
2023/10/11 06:09:06;;;;;;;13.10;12.70;;;;;;;-141.02;100.00;39907.69;5133658;27;20194;-64
2023/10/11 06:11:36;;;;;;;13.55;13.05;;;;;;;-141.02;100.00;39947.97;5133402;27;20206;-66
2023/10/11 06:14:06;;;;;;;13.57;13.07;;;;;;;-141.02;100.00;39984.41;5133714;27;20610;-66
2023/10/11 06:16:37;;;;;;;23.05;22.15;;;;;;;-141.02;100.00;40022.75;5133712;27;20196;-65
2023/10/11 06:19:17;;;;;;;22.73;21.83;;;;;;;-141.02;100.00;39974.81;5133780;27;20610;-66
2023/10/11 06:21:57;;;;;;;20.48;19.67;;;;;;;-141.02;100.00;40041.94;5133602;27;20212;-66
2023/10/11 06:24:24;;;;;;;24.08;23.08;;;;;;;-141.02;100.00;40126.34;5133385;27;20754;-64
2023/10/11 06:26:55;;;;;;;14.00;13.50;;;;;;;-141.02;100.00;40034.28;5133195;27;20200;-65
2023/10/11 06:29:23;;;;;;;14.40;13.88;;;;;;;-141.02;100.00;40053.44;5133194;27;20188;-66
2023/10/11 06:31:53;;;;;;;14.40;13.90;;;;;;;-141.02;100.00;40180.06;5133465;27;20200;-62
2023/10/11 06:34:25;;;;;;;14.25;13.75;;;;;;;-141.02;100.00;40082.22;5133118;27;20211;-66
2023/10/11 06:36:53;;;;;;;14.45;13.95;;;;;;;-141.02;100.00;40080.31;5133419;27;20184;-67
2023/10/11 06:42:14;;;;;;;15.05;14.45;;;;;;;-141.02;100.00;40034.28;5117041;27;20725;-66
2023/10/11 06:44:40;;;;;;;14.90;14.30;;;;;;;-141.02;100.00;39988.22;5133276;27;20608;-66
2023/10/11 06:47:11;;;;;;;15.10;14.50;;;;;;;-141.02;100.00;39999.75;5132649;27;20708;-66
2023/10/11 06:49:44;;;;;;;14.68;14.18;;;;;;;-141.02;100.00;40015.09;5133317;27;20189;-66
2023/10/11 06:52:12;;;;;;;14.85;14.25;;;;;;;-141.02;100.00;40038.09;5132891;28;20743;-66
2023/10/11 06:54:45;;;;;;;15.15;14.55;;;;;;;-141.02;100.00;40064.97;5133250;28;20221;-64
2023/10/11 06:57:16;;;;;;;15.95;15.25;;;;;;;-141.02;100.00;40061.13;5133217;27;20188;-66
2023/10/11 06:59:44;;;;;;;16.60;15.90;;;;;;;-141.02;100.00;40055.38;5132820;28;20608;-64
2023/10/11 07:02:18;;;;;;;15.45;14.85;;;;;;;-141.02;100.00;40064.97;5132768;28;20315;-67
2023/10/11 07:04:51;;;;;;;15.63;15.02;;;;;;;-141.02;100.00;40149.38;5132852;28;20191;-62
2023/10/11 07:07:19;;;;;;;15.82;15.23;;;;;;;-141.02;100.00;40095.66;5133025;28;20199;-66
2023/10/11 07:09:56;;;;;;;16.10;15.40;;;;;;;-141.02;100.00;40126.34;5132751;28;20677;-66
2023/10/11 07:12:38;;;;;;;16.08;15.38;;;;;;;-141.02;100.00;40164.72;5132978;28;20237;-66
2023/10/11 07:15:07;;;;;;;17.60;16.65;;;;;;;-141.02;98.96;40210.75;5132756;28;20188;-67
2023/10/11 07:17:36;;;;;;;16.27;15.57;;;;;;;-141.02;99.30;40203.06;5133011;27;20227;-66
2023/10/11 07:20:12;;;;;;;16.58;15.88;;;;;;;-141.02;96.50;40237.59;5132995;28;20271;-67
2023/10/11 07:22:39;;;;;;;16.80;16.00;;;;;;;-141.02;95.88;40322.00;5132936;27;20236;-66
2023/10/11 07:25:36;;;;;;;16.90;16.10;;;;;;;-141.02;96.36;40396.81;5132584;28;20663;-66
2023/10/11 07:28:03;;;;;;;16.45;15.75;;;;;;;-141.02;95.79;40429.44;5132848;28;20196;-63
2023/10/11 07:30:37;;;;;;;16.48;15.77;;;;;;;-141.02;92.97;40333.50;5132887;28;20203;-67
2023/10/11 07:33:06;;;;;;;16.98;16.17;;;;;;;-141.02;91.91;40556.03;5132808;28;20287;-65
2023/10/11 07:35:34;;;;;;;17.48;16.67;;;;;;;-141.02;89.96;40644.28;5132817;28;20275;-64
2023/10/11 07:38:01;;;;;;;17.90;17.00;;;;;;;-141.02;88.20;40709.53;5132794;28;20201;-67
2023/10/11 07:40:34;;;;;;;18.10;17.20;;;;;;;-141.02;88.50;40793.94;5132432;28;20709;-67
2023/10/11 07:43:01;;;;;;;16.92;16.23;;;;;;;-141.02;86.69;40824.63;5132578;27;20192;-66
2023/10/11 07:45:28;;;;;;;18.10;17.20;;;;;;;-141.02;84.50;40818.88;5132811;27;20261;-67
2023/10/11 07:47:55;;;;;;;18.33;17.42;;;;;;;-141.02;82.60;40899.47;5132711;28;20275;-65
2023/10/11 07:50:24;;;;;;;17.83;16.92;;;;;;;-141.02;83.42;40935.91;5132467;27;20230;-67
2023/10/11 07:52:52;;;;;;;17.65;16.83;;;;;;;-141.02;82.72;40955.09;5132325;28;20287;-67
2023/10/11 07:55:20;;;;;;;17.90;17.00;;;;;;;-141.02;81.83;40981.97;5132402;28;20212;-65
2023/10/11 07:57:47;;;;;;;17.95;17.05;;;;;;;-141.02;79.05;41028.03;5132691;28;20192;-67
2023/10/11 08:00:18;;;;;;;18.08;17.17;;;;;;;-141.02;78.71;41003.06;5133679;27;20266;-67
2023/10/11 08:02:56;;;;;;;17.55;16.75;;;;;;;-141.02;78.69;41085.59;5136220;27;20212;-64
2023/10/11 08:05:25;;;;;;;18.15;17.25;;;;;;;-141.02;77.12;41104.78;5136243;27;20267;-67
2023/10/11 08:07:53;;;;;;;17.85;16.95;;;;;;;-141.02;79.09;41131.63;5135843;27;20206;-66
2023/10/11 08:10:33;;;;;;;17.83;16.92;;;;;;;-141.02;74.59;41170.00;5136058;27;20188;-66
2023/10/11 08:13:00;;;;;;;17.58;16.77;;;;;;;-141.02;76.83;41200.72;5136210;27;20275;-66
2023/10/11 08:15:27;;;;;;;18.13;17.23;;;;;;;-141.02;76.74;41231.41;5135947;27;20275;-66
2023/10/11 08:17:54;;;;;;;17.90;17.00;;;;;;;-141.02;74.48;41231.41;5135680;27;20192;-66
2023/10/11 08:20:28;;;;;;;18.13;17.23;;;;;;;-141.02;75.16;41277.47;5135672;27;20228;-67
2023/10/11 08:22:57;;;;;;;17.92;17.02;;;;;;;-141.02;74.84;41331.19;5135533;27;20212;-66
2023/10/11 08:25:29;;;;;;;17.80;16.90;;;;;;;-141.02;73.05;41304.31;5135522;27;20654;-67
2023/10/11 08:28:12;;;;;;;18.27;17.38;;;;;;;-141.02;73.04;41333.09;5135527;27;20214;-66
2023/10/11 08:30:45;;;;;;;17.83;17.00;;;;;;;-141.02;73.26;41383.00;5135497;27;20219;-67
2023/10/11 08:33:14;;;;;;;17.42;16.63;;;;;;;-141.02;71.86;41381.09;5135412;27;20188;-67
2023/10/11 08:35:46;;;;;;;17.60;16.80;;;;;;;-141.02;70.81;41411.78;5135238;27;20192;-66
2023/10/11 08:38:16;;;;;;;17.38;16.58;;;;;;;-141.02;68.37;41450.16;5135337;27;20185;-66
2023/10/11 08:40:43;;;;;;;16.63;15.93;;;;;;;-141.02;65.95;41507.72;5135028;27;20235;-67
2023/10/11 08:43:15;;;;;;;16.73;15.93;;;;;;;-141.02;68.14;41530.75;5135514;27;20279;-66
2023/10/11 08:45:48;;;;;;;16.35;15.57;;;;;;;-141.02;67.92;41576.81;5135132;27;20203;-67
2023/10/11 08:48:15;;;;;;;16.63;15.85;;;;;;;-141.02;68.05;41561.47;5135464;27;20188;-64
2023/10/11 08:50:51;;;;;;;16.58;15.80;;;;;;;-141.02;67.90;41607.53;5135710;27;20239;-66
2023/10/11 08:53:21;;;;;;;17.50;16.60;;;;;;;-141.02;67.17;41561.47;5135306;27;20227;-66
2023/10/11 08:55:56;;;;;;;16.98;16.17;;;;;;;-141.02;68.02;41632.47;5135536;27;20206;-64
2023/10/11 08:58:28;;;;;;;16.75;15.95;;;;;;;-141.02;67.93;41653.59;5134924;27;20221;-68
2023/10/11 09:00:56;;;;;;;16.73;15.93;;;;;;;-141.02;67.10;41668.94;5134869;27;20189;-67
2023/10/11 09:03:26;;;;;;;16.35;15.55;;;;;;;-141.02;66.33;41701.56;5134670;27;20193;-59
2023/10/11 09:05:59;;;;;;;16.35;15.55;;;;;;;-141.02;65.66;41726.50;5134718;27;20233;-66
2023/10/11 09:08:31;;;;;;;16.50;15.70;;;;;;;-141.02;67.53;41718.81;5135015;27;20224;-65
2023/10/11 09:11:12;;;;;;;16.45;15.68;;;;;;;-141.02;67.55;41715.00;5134152;27;20569;-66
2023/10/11 09:13:39;;;;;;;16.85;16.05;;;;;;;-141.02;65.66;41726.50;5134882;27;20278;-67
2023/10/11 09:16:12;;;;;;;16.63;15.82;;;;;;;-141.02;64.01;41772.56;5134848;27;20235;-68
2023/10/11 09:18:39;;;;;;;16.67;15.88;;;;;;;-141.02;65.57;41786.00;5134782;27;20191;-63
2023/10/11 09:21:15;;;;;;;16.50;15.70;;;;;;;-141.02;64.82;41787.91;5134418;27;20196;-67
2023/10/11 09:23:47;;;;;;;19.83;18.88;;;;;;;-141.02;66.42;41799.44;5134482;27;20714;-63
2023/10/11 09:26:20;;;;;;;16.23;15.52;;;;;;;-141.02;65.24;41814.78;5134361;27;20570;-67
2023/10/11 09:28:56;;;;;;;16.08;15.38;;;;;;;-141.02;64.33;41822.47;5134571;27;20627;-68
2023/10/11 09:31:25;;;;;;;16.17;15.48;;;;;;;-141.02;63.85;41864.69;5134636;27;20192;-67
2023/10/11 09:33:53;;;;;;;16.58;15.77;;;;;;;-141.02;62.69;41857.00;5134470;27;20227;-65
2023/10/11 09:36:24;;;;;;;16.15;15.45;;;;;;;-141.02;62.46;41910.75;5134426;27;20196;-66
2023/10/11 09:38:55;;;;;;;16.10;15.40;;;;;;;-141.02;63.17;41914.59;5134211;27;20207;-68
2023/10/11 09:41:26;;;;;;;16.33;15.63;;;;;;;-141.02;62.27;41922.25;5134040;27;20217;-65
2023/10/11 09:43:57;;;;;;;16.75;15.95;;;;;;;-141.02;61.05;41943.38;5134279;27;20239;-68
2023/10/11 09:46:30;;;;;;;16.35;15.65;;;;;;;-141.02;60.68;41976.00;5134050;27;20180;-67
2023/10/11 09:48:57;;;;;;;16.33;15.63;;;;;;;-141.02;61.23;41981.75;5133844;27;20188;-70
2023/10/11 09:51:26;;;;;;;16.15;15.45;;;;;;;-141.02;62.13;41999.03;5134151;27;20642;-67
2023/10/11 09:54:01;;;;;;;16.13;15.43;;;;;;;-141.02;61.46;41997.13;5133805;27;20677;-67
2023/10/11 09:56:41;;;;;;;16.33;15.63;;;;;;;-141.02;62.50;42052.78;5134106;27;20180;-67
2023/10/11 09:59:23;;;;;;;16.08;15.38;;;;;;;-141.02;61.79;42047.00;5133674;27;20627;-67
2023/10/11 10:02:02;;;;;;;15.93;15.23;;;;;;;-141.02;62.30;42048.94;5133657;27;20215;-67
2023/10/11 10:04:58;;;;;;;15.43;14.82;;;;;;;-141.02;61.18;42062.38;5133669;27;20716;-68
2023/10/11 10:07:32;;;;;;;15.32;14.73;;;;;;;-141.02;60.74;42052.78;5133901;27;20203;-66
2023/10/11 10:10:02;;;;;;;15.65;15.05;;;;;;;-141.02;61.26;42068.13;5133830;27;20598;-68
2023/10/11 10:12:33;;;;;;;16.27;15.57;;;;;;;-141.02;60.62;42098.84;5133754;27;20219;-69
2023/10/11 10:15:09;;;;;;;15.65;15.05;;;;;;;-141.02;60.21;42114.19;5133484;27;20633;-68
2023/10/11 10:17:38;;;;;;;17.08;16.38;;;;;;;-141.02;61.30;42133.38;5133331;27;20681;-68
2023/10/11 10:20:47;;;;;;;15.20;14.60;;;;;;;-141.02;62.73;42114.19;5133708;27;20293;-67
2023/10/11 10:23:26;;;;;;;14.98;14.38;;;;;;;-141.02;61.23;42118.03;5129135;27;20223;-67
2023/10/11 10:26:38;;;;;;;15.05;14.45;;;;;;;-141.02;59.84;42114.19;5133283;27;20203;-63
2023/10/11 10:29:11;;;;;;;14.95;14.45;;;;;;;-141.02;60.31;42139.13;5133579;27;20185;-67
2023/10/11 10:32:04;;;;;;;15.32;14.73;;;;;;;-141.02;59.22;42164.09;5133496;27;20215;-69
2023/10/11 10:34:31;;;;;;;15.65;14.98;;;;;;;-141.02;59.11;42183.28;5133564;27;20628;-66
2023/10/11 10:37:06;;;;;;;15.45;14.85;;;;;;;-141.02;59.08;42190.97;5133353;27;20189;-67
2023/10/11 10:39:48;;;;;;;15.45;14.85;;;;;;;-141.02;59.58;42256.22;5132691;27;20232;-65
2023/10/11 10:42:18;;;;;;;17.73;16.92;;;;;;;-141.02;59.16;42260.06;5133032;27;20259;-67
2023/10/11 10:44:52;;;;;;;15.65;14.95;;;;;;;-141.02;59.14;42288.84;5133398;27;20272;-68
2023/10/11 10:47:26;;;;;;;15.52;14.82;;;;;;;-141.02;60.02;42294.63;5133310;27;20207;-66
2023/10/11 10:49:54;;;;;;;15.30;14.70;;;;;;;-141.02;59.64;42290.78;5132980;28;20191;-65
2023/10/11 10:52:22;;;;;;;15.88;15.18;;;;;;;-141.02;58.11;42271.56;5133238;28;20275;-66
2023/10/11 10:55:01;;;;;;;16.25;15.55;;;;;;;-141.02;58.10;42317.66;5132975;27;20666;-67
2023/10/11 10:57:27;;;;;;;16.30;15.60;;;;;;;-141.02;58.88;42398.25;5133290;28;20569;-67
2023/10/11 10:59:56;;;;;;;15.90;15.20;;;;;;;-141.02;58.23;42352.19;5133142;28;20253;-67
2023/10/11 11:02:23;;;;;;;16.17;15.48;;;;;;;-141.02;58.02;42392.50;5132995;28;20232;-67
2023/10/11 11:04:49;;;;;;;15.90;15.20;;;;;;;-141.02;59.08;42392.50;5133190;28;20227;-65
2023/10/11 11:07:26;;;;;;;15.73;15.10;;;;;;;-141.02;58.63;42379.06;5132770;28;20232;-67
2023/10/11 11:09:55;;;;;;;16.23;15.63;;;;;;;-141.02;58.50;42413.63;5132788;27;20196;-66
2023/10/11 11:12:28;;;;;;;16.13;15.50;;;;;;;-141.02;57.49;42398.25;5132726;27;20207;-68
2023/10/11 11:14:58;;;;;;;16.40;15.70;;;;;;;-141.02;58.11;42432.81;5133035;27;20203;-68
2023/10/11 11:17:26;;;;;;;15.95;15.35;;;;;;;-141.02;57.72;42448.16;5132999;28;20203;-67
2023/10/11 11:20:28;;;;;;;16.58;15.90;;;;;;;-141.02;58.03;42436.66;5132893;28;20208;-66
2023/10/11 11:22:56;;;;;;;15.85;15.25;;;;;;;-141.02;57.72;42434.72;5133034;27;20216;-68
2023/10/11 11:25:27;;;;;;;16.00;15.40;;;;;;;-141.02;57.06;42428.97;5132677;28;20291;-67
2023/10/11 11:28:15;;;;;;;15.90;15.30;;;;;;;-141.02;56.85;42440.50;5132634;28;20241;-68
2023/10/11 11:30:44;;;;;;;15.85;15.25;;;;;;;-141.02;56.91;42425.13;5132882;28;20239;-67
2023/10/11 11:33:28;;;;;;;16.17;15.48;;;;;;;-141.02;57.22;42444.34;5132874;27;20200;-67
2023/10/11 11:35:55;;;;;;;15.98;15.38;;;;;;;-141.02;56.56;42463.53;5136889;27;20655;-68
2023/10/11 11:38:22;;;;;;;16.17;15.48;;;;;;;-141.02;56.49;42453.94;5136764;27;20192;-68
2023/10/11 11:40:51;;;;;;;17.77;17.17;;;;;;;-141.02;56.38;42448.16;5136284;27;20303;-67
2023/10/11 11:43:20;;;;;;;17.35;16.75;;;;;;;-141.02;55.98;42467.38;5136622;27;20256;-67
2023/10/11 11:45:51;;;;;;;17.45;16.85;;;;;;;-141.02;55.69;42467.38;5136320;27;20196;-68
2023/10/11 11:48:23;;;;;;;17.50;16.90;;;;;;;-141.02;56.79;42467.38;5136642;27;20205;-66
2023/10/11 11:50:49;;;;;;;17.25;16.65;;;;;;;-141.02;56.43;42463.53;5136553;27;20185;-67
2023/10/11 11:53:18;;;;;;;18.08;17.40;;;;;;;-141.02;55.90;42467.38;5136175;27;20684;-69